^^

Nearby METAR Reports

 

LIRH - Frosinone (it-Af, Italy
Distance from station: SO 5km
Dati ricevuti: 21/01/2019 18:55
Non Attivo
Mist, Parz. nuvoloso
Mist, Parz. nuvoloso
 Vento da SE
Vento: SE 7 km/h
Temperatura: 7°C
Temperatura del Vento: 6°C
P.to Rugiada: 5°C
Umidità: 87%
Barometro: 1009 hPa
Summary: Mist
Clouds: Parz. nuvoloso
Visibility: 2 km
Cloud details: Parz. nuvoloso 305 m
Parz. nuvoloso 610 m
2019/01/21 17:55 LIRH 211755Z 14004KT 2000 BR SCT010 SCT020 07/05 Q1009
LIRL - Latina (it-Afb), Italy
Distance from station: OSO 40km
Dati ricevuti: 21/01/2019 18:55
Non Attivo
Molto nuvoloso
Molto nuvoloso
 Vento da E
Vento: E 19 km/h
Temperatura: 12°C
P.to Rugiada: 5°C
Umidità: 63%
Barometro: 1008 hPa
Clouds: Molto nuvoloso
Visibility: 10 km
Cloud details: Parz. nuvoloso 549 m
Molto nuvoloso 1219 m
2019/01/21 17:55 LIRL 211755Z 10010KT 9999 SCT018 BKN040 12/05 Q1008
 
LIRG - Guidonia (it-Afb, Italy
Distance from station: NO 63km
Dati ricevuti: 21/01/2019 18:55
Non Attivo
Pioviggine, Nuvoloso
Pioviggine, Nuvoloso
 Vento da O
Vento: O 7 km/h
Temperatura: 8°C
Temperatura del Vento: 7°C
P.to Rugiada: 8°C
Umidità: 100%
Barometro: 1009 hPa
Summary: Pioviggine
Clouds: Molto nuvoloso
Visibility: 10 km
Cloud details: Parz. nuvoloso 610 m
Molto nuvoloso 914 m
2019/01/21 17:55 LIRG 211755Z 28004KT 9999 -RA SCT020 BKN030 08/08 Q1009
LIRA - Ciampino(It-Afb/, Italy
Distance from station: ONO 64km
Dati ricevuti: 22/01/2019 01:20
Pioggia, Parz. nuvoloso
Pioggia, Parz. nuvoloso
 Vento da N
Vento: N 22 km/h
Temperatura: 7°C
Temperatura del Vento: 4°C
P.to Rugiada: 6°C
Umidità: 93%
Barometro: 1006 hPa
Summary: Pioggia
Clouds: Parz. nuvoloso
Visibility: 10 km
2019/01/22 00:20 LIRA 220020Z 01012KT 9999 RA NSC 07/06 Q1006
 
LIRU - Roma/Urbe (it-Af, Italy
Distance from station: ONO 76km
Dati ricevuti: 21/01/2019 17:50
Non Attivo
Pioviggine, Nuvoloso
Pioviggine, Nuvoloso
 Vento da calm
Vento: Calma
Temperatura: 8°C
P.to Rugiada: 7°C
Umidità: 93%
Barometro: 1010 hPa
Summary: Pioviggine
Clouds: Molto nuvoloso
Visibility: 9 km
Cloud details: Parz. nuvoloso 1067 m
Molto nuvoloso 1524 m
2019/01/21 16:50 LIRU 211650Z 00000KT 9000 -RA SCT035 BKN050 08/07 Q1010
LIRE - Pratica Di Mare(, Italy
Distance from station: O 77km
Dati ricevuti: 22/01/2019 00:55
Pioviggine, Parz. nuvoloso
Pioviggine, Parz. nuvoloso
 Vento da NNE
Vento: NNE 19 km/h
Temperatura: 8°C
Temperatura del Vento: 4°C
P.to Rugiada: 6°C
Umidità: 87%
Barometro: 1006 hPa
Summary: Pioviggine
Clouds: Parz. nuvoloso
Visibility: 8 km
Cloud details: Parz. nuvoloso 762 m
Parz. nuvoloso 914 m
2019/01/21 23:55 LIRE 212355Z 02010KT 8000 -RA SCT025 SCT030 08/06 Q1006 RMK BKN VIS MIN 8000 WIND THR13 04010KT WIND THR31 /////KT BLU
 
LIQN - Rieti, Italy
Distance from station: NNO 92km
Dati ricevuti: 21/01/2019 17:50
Non Attivo
Parz. nuvoloso
Parz. nuvoloso
 Vento da varies
Vento: varies 6 km/h
Temperatura: 6°C
P.to Rugiada: 5°C
Umidità: 93%
Barometro: 1009 hPa
Clouds: Parz. nuvoloso
Visibility: 9 km
Cloud details: Parz. nuvoloso 610 m
2019/01/21 16:50 LIQN 211650Z VRB03KT 9000 SCT020 06/05 Q1009
LIRK - Terminillo, Italy
Distance from station: NNO 93km
Dati ricevuti: 22/01/2019 00:55

 Vento da ESE
Vento: ESE 41 km/h
Temperatura: -4°C
Temperatura del Vento: -13°C
P.to Rugiada: -4°C
Umidità: 100%
Barometro: 1004 hPa
2019/01/21 23:55 LIRK 212355Z AUTO 11022KT //// M04/M04 Q1004
 
LIRF - Roma/Fiumicino, Italy
Distance from station: O 94km
Dati ricevuti: 22/01/2019 01:20
Pioviggine, Nuvoloso
Pioviggine, Nuvoloso
 Vento da NNE
Vento: NNE 22 km/h
Temperatura: 7°C
Temperatura del Vento: 4°C
P.to Rugiada: 5°C
Umidità: 87%
Barometro: 1006 hPa
Summary: Pioviggine
Clouds: Molto nuvoloso
Visibility: 10 km
Cloud details: Parz. nuvoloso 914 m
Molto nuvoloso 1067 m
2019/01/22 00:20 LIRF 220020Z 02012KT 9999 -RA SCT030 BKN035 07/05 Q1006 RERA NOSIG
LIRM - Grazzanise (it-A, Italy
Distance from station: SE 94km
Dati ricevuti: 22/01/2019 00:55
Pioviggine, Nuvoloso
Pioviggine, Nuvoloso
 Vento da varies
Vento: varies 0 km/h
Temperatura: 8°C
P.to Rugiada: 6°C
Umidità: 87%
Barometro: 1008 hPa
Summary: Pioviggine
Clouds: Molto nuvoloso
Visibility: 10 km
Cloud details: Parz. nuvoloso 610 m
Molto nuvoloso 914 m
2019/01/21 23:55 LIRM 212355Z /////KT 9999 -RA SCT020 BKN030 08/06 Q1008
 
LIBP - Pescara, Italy
Distance from station: NE 108km
Dati ricevuti: 22/01/2019 00:50
Pioviggine, Coperto
Pioviggine, Coperto
 Vento da SSE
Vento: SSE 4 km/h
Temperatura: 6°C
P.to Rugiada: 6°C
Umidità: 100%
Barometro: 1011 hPa
Summary: Pioviggine
Clouds: Coperto
Visibility: 10 km
Cloud details: Coperto 335 m
2019/01/21 23:50 LIBP 212350Z AUTO 15002KT 9999 -RA OVC011/// 06/06 Q1011
LIRN - Napoli/Capodichino, Italy
Distance from station: SE 120km
Dati ricevuti: 22/01/2019 01:20
Molto nuvoloso
Molto nuvoloso
 Vento da E
Vento: E 11 km/h
Temperatura: 9°C
Temperatura del Vento: 7°C
P.to Rugiada: 7°C
Umidità: 87%
Barometro: 1007 hPa
Clouds: Molto nuvoloso
Visibility: 10 km
Cloud details: Molto nuvoloso 762 m
2019/01/22 00:20 LIRN 220020Z 10006KT 050V120 9999 BKN025 09/07 Q1007 NOSIG
 
LIRV - Viterbo (it-Mil), Italy
Distance from station: NO 133km
Dati ricevuti: 21/01/2019 18:55
Non Attivo
Pioviggine, Nuvoloso
Pioviggine, Nuvoloso
 Vento da varies
Vento: varies 0 km/h
Temperatura: 4°C
P.to Rugiada: 2°C
Umidità: 87%
Barometro: 1010 hPa
Summary: Pioviggine
Clouds: Molto nuvoloso
Visibility: 10 km
Cloud details: Parz. nuvoloso 488 m
Molto nuvoloso 671 m
2019/01/21 17:55 LIRV 211755Z /////KT 9999 -RA SCT016 BKN022 04/02 Q1010
LIQC - Capri, Italy
Distance from station: SSE 145km
Dati ricevuti: 22/01/2019 00:55
Pioviggine, Nuvoloso
Pioviggine, Nuvoloso
 Vento da NE
Vento: NE 15 km/h
Temperatura: 11°C
P.to Rugiada: 11°C
Umidità: 100%
Barometro: 1006 hPa
Summary: Pioviggine
Clouds: Molto nuvoloso
Visibility: 10 km
Cloud details: Parz. nuvoloso 610 m
Molto nuvoloso 762 m
2019/01/21 23:55 LIQC 212355Z 05008KT 9999 -RA SCT020 BKN025 11/11 Q1006 RETS RMK OVC QUK / QUL / VIS MAR 10 KM VIS MIN 9999
 
LIRT - Trevico, Italy
Distance from station: ESE 172km
Dati ricevuti: 22/01/2019 00:55
Nebbia
Nebbia
 Vento da S
Vento: S 20 km/h
Temperatura: 2°C
Temperatura del Vento: -3°C
P.to Rugiada: 0°C
Umidità: 87%
Barometro: 1008 hPa
Summary: Nebbia
Visibility: 0 km
2019/01/21 23:55 LIRT 212355Z 18011KT 0000 FG VV/// 02/00 Q1008 RMK MON INVIS VAL INVIS VIS MIN 0000
LIRZ - Perugia, Italy
Distance from station: NNO 172km
Dati ricevuti: 22/01/2019 01:14
Pioviggine, Coperto
Pioviggine, Coperto
 Vento da N
Vento: N 15 km/h
Temperatura: 4°C
Temperatura del Vento: 1°C
P.to Rugiada: 2°C
Umidità: 87%
Barometro: 1010 hPa
Summary: Pioviggine
Clouds: Coperto
Visibility: 10 km
Cloud details: Coperto 1097 m
2019/01/22 00:14 LIRZ 220014Z AUTO 36008KT 9999 DZ OVC036/// 04/02 Q1010
 
LIRI - Pontecagnano (af, Italy
Distance from station: SE 177km
Dati ricevuti: 21/01/2019 16:50
Non Attivo
Molto nuvoloso
Molto nuvoloso
 Vento da ONO
Vento: ONO 6 km/h
Temperatura: 12°C
P.to Rugiada: 7°C
Umidità: 72%
Barometro: 1010 hPa
Clouds: Molto nuvoloso
Visibility: 10 km
Cloud details: Few Clouds 914 m
Molto nuvoloso 2134 m
2019/01/21 15:50 LIRI 211550Z 30003KT 9999 FEW030 BKN070 12/07 Q1010
LIBF - Foggia/Gino Lisa, Italy
Distance from station: E 183km
Dati ricevuti: 21/01/2019 15:50
Non Attivo
Molto nuvoloso
Molto nuvoloso
 Vento da NNO
Vento: NNO 13 km/h
Temperatura: 9°C
Temperatura del Vento: 7°C
P.to Rugiada: 7°C
Umidità: 87%
Barometro: 1012 hPa
Clouds: Molto nuvoloso
Visibility: 10 km
Cloud details: Molto nuvoloso 610 m
2019/01/21 14:50 LIBF 211450Z 33007KT 9999 BKN020 09/07 Q1012
 
LIQO - Monte Argentario, Italy
Distance from station: ONO 195km
Dati ricevuti: 21/01/2019 18:55
Non Attivo
Light drizzle, Nebbia
Light drizzle, Nebbia
 Vento da NE
Vento: NE 19 km/h
Temperatura: 3°C
Temperatura del Vento: -2°C
P.to Rugiada: 3°C
Umidità: 100%
Barometro: 1008 hPa
Summary: Light drizzle, Nebbia
Visibility: 0 km
2019/01/21 17:55 LIQO 211755Z 04010KT 0000 -DZ FG VV/// 03/03 Q1008 RMK VAL INVIS NC VIS MIN 0000
LIBA - Amendola (it-Afb, Italy
Distance from station: E 198km
Dati ricevuti: 22/01/2019 00:55
Pioviggine, Nuvoloso
Pioviggine, Nuvoloso
 Vento da ONO
Vento: ONO 11 km/h
Temperatura: 7°C
Temperatura del Vento: 5°C
P.to Rugiada: 5°C
Umidità: 87%
Barometro: 1009 hPa
Summary: Pioviggine
Clouds: Molto nuvoloso
Visibility: 8 km
Cloud details: Parz. nuvoloso 610 m
Molto nuvoloso 1219 m
2019/01/21 23:55 LIBA 212355Z 30006KT 8000 -RA SCT020 BKN040 07/05 Q1009 RMK OVC VIS MIN 8000 WIND THR11 29006KT WIND THR29 /////KT BLU
 
LIBN - Lecce (it-Afb), Italy
Dati ricevuti: 22/01/2019 00:55
Parz. nuvoloso
Parz. nuvoloso
 Vento da SE
Vento: SE 19 km/h
Temperatura: 9°C
Temperatura del Vento: 6°C
P.to Rugiada: 8°C
Umidità: 94%
Barometro: 1011 hPa
Clouds: Parz. nuvoloso
Visibility: 10 km
Cloud details: Few Clouds 610 m
Parz. nuvoloso 914 m
2019/01/21 23:55 LIBN 212355Z 14010KT 9999 FEW020TCU SCT030 09/08 Q1011 RMK OVC BKN060 VIS MIN 9999 WIND THR14 14010KT WIND THR32 14010KT BLU
LIPY - Ancona-Falconara, Italy
Dati ricevuti: 21/01/2019 23:50
Non Attivo
Pioggia, Nuvoloso
Pioggia, Nuvoloso
 Vento da NO
Vento: NO 19 km/h
Temperatura: 4°C
Temperatura del Vento: 0°C
P.to Rugiada: 4°C
Umidità: 100%
Barometro: 1013 hPa
Summary: Pioggia
Clouds: Molto nuvoloso
Visibility: 5 km
Cloud details: Molto nuvoloso 305 m
2019/01/21 22:50 LIPY 212250Z 31010KT 5000 RA BKN010 04/04 Q1013
 
LICJ - Palermo-Punta Raisi, Italy
Dati ricevuti: 22/01/2019 01:20
Few Clouds
Few Clouds
 Vento da S
Vento: S 26 km/h
Temperatura: 12°C
P.to Rugiada: 7°C
Umidità: 72%
Barometro: 1007 hPa
Clouds: Few Clouds
Visibility: 10 km
Cloud details: Few Clouds 762 m
2019/01/22 00:20 LICJ 220020Z 19014KT 9999 FEW025 12/07 Q1007
LIEB - Capo Bellavista, Italy
Dati ricevuti: 22/01/2019 00:55
Few Clouds
Few Clouds
 Vento da NO
Vento: NO 11 km/h
Temperatura: 8°C
Temperatura del Vento: 6°C
P.to Rugiada: 4°C
Umidità: 76%
Barometro: 1006 hPa
Clouds: Few Clouds
Visibility: 10 km
Cloud details: Few Clouds 610 m
2019/01/21 23:55 LIEB 212355Z 32006KT 9999 FEW020 08/04 Q1006 RMK BKN SCT080 QUK / QUL / VIS MAR 30 KM MON INVIS VIS MIN 9999
 
LIEC - Capo Carbonara, Italy
Dati ricevuti: 22/01/2019 00:55
Sereno
Sereno
 Vento da O
Vento: O 30 km/h
Temperatura: 9°C
Temperatura del Vento: 5°C
P.to Rugiada: 6°C
Umidità: 82%
Barometro: 1008 hPa
Summary: Sereno
Visibility: greater than 10 km
2019/01/21 23:55 LIEC 212355Z 28016KT CAVOK 09/06 Q1008 RMK FEW FEW070 QUK / QUL / VIS MAR 18 KM VIS MIN 9999
LIED - Cagliari-Decimomannu(It-A, Italy
Dati ricevuti: 22/01/2019 00:55
Few Clouds
Few Clouds
 Vento da NNE
Vento: NNE 6 km/h
Temperatura: 8°C
P.to Rugiada: 6°C
Umidità: 87%
Barometro: 1009 hPa
Clouds: Few Clouds
Visibility: 8 km
Cloud details: Few Clouds 1219 m
2019/01/21 23:55 LIED 212355Z 02003KT 8000 FEW040 08/06 Q1009 RMK FEW VIS MIN 8000 WIND THR35 /////KT WIND THR17 /////KT BLU
 
LIEE - Cagliari-Elmas(A, Italy
Dati ricevuti: 22/01/2019 01:20
Sereno
Sereno
 Vento da NO
Vento: NO 13 km/h
Temperatura: 7°C
Temperatura del Vento: 5°C
P.to Rugiada: 5°C
Umidità: 87%
Barometro: 1010 hPa
Summary: Sereno
Visibility: greater than 10 km
2019/01/22 00:20 LIEE 220020Z 32007KT CAVOK 07/05 Q1010
LIEO - Olbia-Costa Smeralda, Italy
Dati ricevuti: 22/01/2019 01:20
Sereno
Sereno
 Vento da OSO
Vento: OSO 11 km/h
Temperatura: 8°C
Temperatura del Vento: 6°C
P.to Rugiada: 8°C
Umidità: 100%
Barometro: 1009 hPa
Summary: Sereno
Visibility: greater than 10 km
2019/01/22 00:20 LIEO 220020Z 25006KT CAVOK 08/08 Q1009
 
LIEA - Alghero, Italy
Dati ricevuti: 22/01/2019 01:20
Few Clouds
Few Clouds
 Vento da varies
Vento: varies 2 km/h
Temperatura: 6°C
P.to Rugiada: 5°C
Umidità: 93%
Barometro: 1010 hPa
Clouds: Few Clouds
Visibility: 10 km
Cloud details: Few Clouds 1219 m
2019/01/22 00:20 LIEA 220020Z VRB01KT 9999 FEW040 06/05 Q1010
LICA - Catanzaro-Lamezia Terme, Italy
Dati ricevuti: 22/01/2019 00:50
Molto nuvoloso
Molto nuvoloso
 Vento da ENE
Vento: ENE 24 km/h
Temperatura: 10°C
Temperatura del Vento: 7°C
P.to Rugiada: 9°C
Umidità: 94%
Barometro: 1010 hPa
Clouds: Molto nuvoloso
Visibility: 10 km
Cloud details: Few Clouds 610 m
Molto nuvoloso 1219 m
2019/01/21 23:50 LICA 212350Z 07013KT 9999 FEW020 BKN040 10/09 Q1010
 
LIBQ - Cosenza-Monte Scuro, Italy
Dati ricevuti: 22/01/2019 00:55
Nebbia
Nebbia
 Vento da varies
Vento: varies 7 km/h
Temperatura: 2°C
Temperatura del Vento: 0°C
P.to Rugiada: 2°C
Umidità: 100%
Barometro: 1008 hPa
Summary: Nebbia
Visibility: 0 km
2019/01/21 23:55 LIBQ 212355Z VRB04KT 0000 FG VV/// 02/02 Q1008 RMK MON INVIS VAL INVIS VIS MIN 0000
LICR - Reggio Calabria, Italy
Dati ricevuti: 21/01/2019 23:50
Non Attivo
Molto nuvoloso
Molto nuvoloso
 Vento da NE
Vento: NE 11 km/h
Temperatura: 9°C
Temperatura del Vento: 7°C
P.to Rugiada: 8°C
Umidità: 94%
Barometro: 1009 hPa
Clouds: Molto nuvoloso
Visibility: 10 km
Cloud details: Parz. nuvoloso 457 m
Molto nuvoloso 1219 m
2019/01/21 22:50 LICR 212250Z 05006KT 9999 SCT015 BKN040 09/08 Q1009 RETSRA
 
LIBV - Bari-Gioia Del Colle, Italy
Dati ricevuti: 22/01/2019 00:55
Molto nuvoloso
Molto nuvoloso
 Vento da SSE
Vento: SSE 24 km/h
Temperatura: 8°C
Temperatura del Vento: 4°C
P.to Rugiada: 8°C
Umidità: 100%
Barometro: 1008 hPa
Clouds: Molto nuvoloso
Visibility: 7 km
Cloud details: Parz. nuvoloso 305 m
Molto nuvoloso 762 m
2019/01/21 23:55 LIBV 212355Z 15013KT 7000 SCT010 BKN025 08/08 Q1008 RMK OVC VIS MIN 7000 WIND THR32 15011KT WIND THR14 15013KT WHT
LIBD - Bari-Palese Macchie, Italy
Dati ricevuti: 22/01/2019 01:20
Parz. nuvoloso
Parz. nuvoloso
 Vento da varies
Vento: varies 4 km/h
Temperatura: 7°C
P.to Rugiada: 6°C
Umidità: 93%
Barometro: 1009 hPa
Clouds: Parz. nuvoloso
Visibility: 10 km
Cloud details: Parz. nuvoloso 1372 m
2019/01/22 00:20 LIBD 220020Z VRB02KT 9999 SCT045 07/06 Q1009
 
LIBR - Brindisi-Casale, Italy
Dati ricevuti: 22/01/2019 01:20
Pioviggine, Parz. nuvoloso
Pioviggine, Parz. nuvoloso
 Vento da SSE
Vento: SSE 13 km/h
Temperatura: 11°C
P.to Rugiada: 9°C
Umidità: 88%
Barometro: 1010 hPa
Summary: Pioviggine
Clouds: Parz. nuvoloso
Visibility: 10 km
Cloud details: Few Clouds 610 m
Parz. nuvoloso 1219 m
2019/01/22 00:20 LIBR 220020Z 16007KT 9999 -RA FEW020 SCT040 11/09 Q1010
LIRT - Trevico, Italy
Dati ricevuti: 22/01/2019 00:55
Nebbia
Nebbia
 Vento da S
Vento: S 20 km/h
Temperatura: 2°C
Temperatura del Vento: -3°C
P.to Rugiada: 0°C
Umidità: 87%
Barometro: 1008 hPa
Summary: Nebbia
Visibility: 0 km
2019/01/21 23:55 LIRT 212355Z 18011KT 0000 FG VV/// 02/00 Q1008 RMK MON INVIS VAL INVIS VIS MIN 0000
 
LICB - Comiso, Italy
Dati ricevuti: 21/01/2019 22:50
Non Attivo
Few Clouds
Few Clouds
 Vento da S
Vento: S 9 km/h
Temperatura: 13°C
P.to Rugiada: 11°C
Umidità: 88%
Barometro: 1009 hPa
Clouds: Few Clouds
Visibility: 10 km
Cloud details: Few Clouds 610 m
2019/01/21 21:50 LICB 212150Z 19005KT 150V230 9999 FEW020 13/11 Q1009
LICL - Gela, Italy
Dati ricevuti: 21/01/2019 18:55
Non Attivo
Parz. nuvoloso
Parz. nuvoloso
 Vento da S
Vento: S 9 km/h
Temperatura: 14°C
P.to Rugiada: 10°C
Umidità: 77%
Barometro: 1009 hPa
Clouds: Parz. nuvoloso
Visibility: 10 km
Cloud details: Parz. nuvoloso 640 m
2019/01/21 17:55 LICL 211755Z 19005KT 9999 SCT021 14/10 Q1009 RMK BKN BKN090 QUK / QUL / VIS MAR 12 KM VIS MIN 9999
 
LIBN - Lecce (it-Afb), Italy
Dati ricevuti: 22/01/2019 00:55
Parz. nuvoloso
Parz. nuvoloso
 Vento da SE
Vento: SE 19 km/h
Temperatura: 9°C
Temperatura del Vento: 6°C
P.to Rugiada: 8°C
Umidità: 94%
Barometro: 1011 hPa
Clouds: Parz. nuvoloso
Visibility: 10 km
Cloud details: Few Clouds 610 m
Parz. nuvoloso 914 m
2019/01/21 23:55 LIBN 212355Z 14010KT 9999 FEW020TCU SCT030 09/08 Q1011 RMK OVC BKN060 VIS MIN 9999 WIND THR14 14010KT WIND THR32 14010KT BLU
LICJ - Palermo-Punta Raisi, Italy
Dati ricevuti: 22/01/2019 01:20
Few Clouds
Few Clouds
 Vento da S
Vento: S 26 km/h
Temperatura: 12°C
P.to Rugiada: 7°C
Umidità: 72%
Barometro: 1007 hPa
Clouds: Few Clouds
Visibility: 10 km
Cloud details: Few Clouds 762 m
2019/01/22 00:20 LICJ 220020Z 19014KT 9999 FEW025 12/07 Q1007
 
LICZ - Catania-Sigonella (nas), Italy
Dati ricevuti: 22/01/2019 00:55
Mist, Nuvoloso
Mist, Nuvoloso
 Vento da OSO
Vento: OSO 9 km/h
Temperatura: 7°C
Temperatura del Vento: 6°C
P.to Rugiada: 7°C
Umidità: 100%
Barometro: 1009 hPa
Summary: Mist
Clouds: Molto nuvoloso
Visibility: 3 km
Cloud details: Few Clouds 914 m
Molto nuvoloso 2438 m
2019/01/21 23:55 LICZ 212355Z 25005KT 2500 BR FEW030 BKN080 07/07 Q1009 RMK BKN VIS MIN 2500 WIND THR28 26003KT WIND THR10 29004KT A2982 YLO
LICC - Catania-Fontanarossa, Italy
Dati ricevuti: 22/01/2019 01:20
Molto nuvoloso
Molto nuvoloso
 Vento da O
Vento: O 13 km/h
Temperatura: 8°C
Temperatura del Vento: 6°C
P.to Rugiada: 8°C
Umidità: 100%
Barometro: 1009 hPa
Clouds: Molto nuvoloso
Visibility: 7 km
Cloud details: Parz. nuvoloso 762 m
Molto nuvoloso 3048 m
2019/01/22 00:20 LICC 220020Z 26007KT 7000 SCT025 BKN100 08/08 Q1009
 
LICT - Trapani-Birgi (a, Italy
Dati ricevuti: 22/01/2019 00:55
Molto nuvoloso
Molto nuvoloso
 Vento da SSO
Vento: SSO 24 km/h
Temperatura: 12°C
P.to Rugiada: 10°C
Umidità: 88%
Barometro: 1007 hPa
Clouds: Molto nuvoloso
Visibility: 10 km
Cloud details: Few Clouds 457 m
Molto nuvoloso 1067 m
2019/01/21 23:55 LICT 212355Z 20013KT 9999 FEW015 BKN035 12/10 Q1007
LICD - Agrigento-Lampedusa, Italy
Dati ricevuti: 21/01/2019 21:50
Non Attivo
Sereno
Sereno
 Vento da OSO
Vento: OSO 17 km/h
Temperatura: 15°C
P.to Rugiada: 12°C
Umidità: 82%
Barometro: 1010 hPa
Summary: Sereno
Visibility: greater than 10 km
2019/01/21 20:50 LICD 212050Z 24009KT CAVOK 15/12 Q1010
 
LICG - Pantelleria(It-A, Italy
Dati ricevuti: 21/01/2019 18:55
Non Attivo
Few Clouds
Few Clouds
 Vento da varies
Vento: varies 0 km/h
Temperatura: 12°C
P.to Rugiada: 10°C
Umidità: 88%
Barometro: 1008 hPa
Clouds: Few Clouds
Visibility: 10 km
Cloud details: Few Clouds 457 m
2019/01/21 17:55 LICG 211755Z /////KT 9999 FEW015 12/10 Q1008
LIPX - Villafranca(Cv/M, Italy
Dati ricevuti: 22/01/2019 01:20
Parz. nuvoloso
Parz. nuvoloso
 Vento da varies
Vento: varies 4 km/h
Temperatura: -1°C
P.to Rugiada: -5°C
Umidità: 75%
Barometro: 1015 hPa
Clouds: Parz. nuvoloso
Visibility: 10 km
Cloud details: Parz. nuvoloso 2134 m
2019/01/22 00:20 LIPX 220020Z VRB02KT 9999 SCT070 M01/M05 Q1015
 
LIPO - Brescia/Montichiari, Italy
Dati ricevuti: 22/01/2019 00:50
Sereno
Sereno
 Vento da NE
Vento: NE 7 km/h
Temperatura: 0°C
Temperatura del Vento: -3°C
P.to Rugiada: -4°C
Umidità: 75%
Barometro: 1015 hPa
Summary: Sereno
Visibility: greater than 10 km
2019/01/21 23:50 LIPO 212350Z 05004KT CAVOK M00/M04 Q1015
LIPL - Ghedi (it-Afb), Italy
Dati ricevuti: 22/01/2019 00:55
Mist, Parz. nuvoloso
Mist, Parz. nuvoloso
 Vento da N
Vento: N 4 km/h
Temperatura: -3°C
P.to Rugiada: -6°C
Umidità: 80%
Barometro: 1016 hPa
Summary: Mist
Clouds: Parz. nuvoloso
Visibility: 5 km
2019/01/21 23:55 LIPL 212355Z 36002KT 5000 BR NSC M03/M06 Q1016 RMK SCT SCT200 VIS MIN 5000 WIND THR31 32001KT WIND THR13 27001KT WHT
 
LIMP - Parma, Italy
Dati ricevuti: 21/01/2019 20:50
Non Attivo
Mist, Nuvoloso
Mist, Nuvoloso
 Vento da O
Vento: O 2 km/h
Temperatura: 2°C
P.to Rugiada: 2°C
Umidità: 100%
Barometro: 1016 hPa
Summary: Mist
Clouds: Molto nuvoloso
Visibility: 4 km
Cloud details: Molto nuvoloso 1219 m
2019/01/21 19:50 LIMP 211950Z 26001KT 3500 BR BKN040 02/02 Q1016
LIMS - Piacenza (it-Afb, Italy
Dati ricevuti: 21/01/2019 18:55
Non Attivo
Mist, Nuvoloso
Mist, Nuvoloso
 Vento da S
Vento: S 2 km/h
Temperatura: 3°C
P.to Rugiada: 3°C
Umidità: 100%
Barometro: 1015 hPa
Summary: Mist
Clouds: Molto nuvoloso
Visibility: 3 km
Cloud details: Molto nuvoloso 2134 m
2019/01/21 17:55 LIMS 211755Z 19001KT 3000 BR BKN070 03/03 Q1015
 
LIPF - Ferrara (aut), Italy
Dati ricevuti: 21/01/2019 18:55
Non Attivo
Molto nuvoloso
Molto nuvoloso
 Vento da ONO
Vento: ONO 7 km/h
Temperatura: 4°C
Temperatura del Vento: 2°C
P.to Rugiada: 0°C
Umidità: 75%
Barometro: 1016 hPa
Clouds: Molto nuvoloso
Visibility: 7 km
Cloud details: Molto nuvoloso 1829 m
2019/01/21 17:55 LIPF 211755Z 29004KT 7000 BKN060 04/00 Q1016
LIPE - Bologna/Borgo (a, Italy
Dati ricevuti: 22/01/2019 01:20
Sereno
Sereno
 Vento da O
Vento: O 7 km/h
Temperatura: 2°C
Temperatura del Vento: 0°C
P.to Rugiada: 0°C
Umidità: 87%
Barometro: 1015 hPa
Summary: Sereno
Visibility: greater than 10 km
2019/01/22 00:20 LIPE 220020Z 28004KT CAVOK 02/00 Q1015
 
LIPU - Padova (civ/It-A, Italy
Dati ricevuti: 20/01/2019 08:00
Non Attivo
Molto nuvoloso
Molto nuvoloso
 Vento da varies
Vento: varies 2 km/h
Temperatura: -2°C
P.to Rugiada: -2°C
Umidità: 100%
Barometro: 1015 hPa
Clouds: Molto nuvoloso
Visibility: 10 km
Cloud details: Molto nuvoloso 1494 m
2019/01/20 07:00 LIPU 200700Z VRB01KT 230V010 9999 BKN049 M02/M02 Q1015
LIME - Bergamo/Orio Ser, Italy
Dati ricevuti: 22/01/2019 01:20
Parz. nuvoloso
Parz. nuvoloso
 Vento da N
Vento: N 7 km/h
Temperatura: -1°C
Temperatura del Vento: -4°C
P.to Rugiada: -3°C
Umidità: 86%
Barometro: 1014 hPa
Clouds: Parz. nuvoloso
Visibility: 8 km
2019/01/22 00:20 LIME 220020Z 01004KT 8000 NSC M01/M03 Q1014 NOSIG
 
LIMT - Cisa Pass, Italy
Dati ricevuti: 13/04/2018 12:55
Non Attivo
Nebbia
Nebbia
 Vento da SSO
Vento: SSO 15 km/h
Temperatura: 6°C
Temperatura del Vento: 3°C
P.to Rugiada: 4°C
Umidità: 87%
Barometro: 1013 hPa
Summary: Nebbia
Visibility: 0 km
2018/04/13 10:55 LIMT 131055Z 20008KT 0000 FG VV/// 06/04 Q1013 RMK MON INVIS VAL INVIS VIS MIN 0000
LIVC - Cimone Mountain, Italy
Dati ricevuti: 22/01/2019 00:55
Freezing Fog
Freezing Fog
 Vento da varies
Vento: varies 0 km/h
Temperatura: -9°C
P.to Rugiada: -10°C
Umidità: 93%
Barometro: 1004 hPa
Summary: Freezing Fog
Visibility: 0 km
2019/01/21 23:55 LIVC 212355Z /////KT 0000 FZFG VV/// M09/M10 Q1004 RMK MON INVIS VAL INVIS VIS MIN 0000
 
LIVP - Paganella Mounta, Italy
Dati ricevuti: 21/01/2019 21:55
Non Attivo
Sereno
Sereno
 Vento da N
Vento: N 22 km/h
Temperatura: -9°C
Temperatura del Vento: -17°C
P.to Rugiada: -15°C
Umidità: 62%
Barometro: 1007 hPa
Summary: Sereno
Visibility: greater than 10 km
2019/01/21 20:55 LIVP 212055Z 36012KT CAVOK M09/M15 Q1007
LIML - Milano/Linate, Italy
Dati ricevuti: 22/01/2019 01:20
Patches of fog, Parz. nuvoloso
Patches of fog, Parz. nuvoloso
 Vento da ENE
Vento: ENE 2 km/h
Temperatura: -3°C
P.to Rugiada: -3°C
Umidità: 100%
Barometro: 1015 hPa
Summary: Patches of Fog
Clouds: Parz. nuvoloso
Visibility: 2 km
2019/01/22 00:20 LIML 220020Z 06001KT 2000 R36/1400U BCFG NSC M03/M03 Q1015 NOSIG
 
LIPS - Istrana (it-Afb), Italy
Dati ricevuti: 22/01/2019 00:55
Molto nuvoloso
Molto nuvoloso
 Vento da N
Vento: N 6 km/h
Temperatura: 1°C
P.to Rugiada: -2°C
Umidità: 81%
Barometro: 1015 hPa
Clouds: Molto nuvoloso
Visibility: 10 km
Cloud details: Molto nuvoloso 2134 m
2019/01/21 23:55 LIPS 212355Z 01003KT 9999 BKN070 01/M02 Q1015 RMK BKN VIS MIN 9999 WIND THR26 34005KT WIND THR08 01005KT BLU
LIPH - Treviso(Civ/It-A, Italy
Dati ricevuti: 22/01/2019 01:20
Parz. nuvoloso
Parz. nuvoloso
 Vento da NNE
Vento: NNE 6 km/h
Temperatura: 1°C
P.to Rugiada: -4°C
Umidità: 70%
Barometro: 1015 hPa
Clouds: Parz. nuvoloso
Visibility: 10 km
Cloud details: Few Clouds 4877 m
Parz. nuvoloso 5486 m
2019/01/22 00:20 LIPH 220020Z AUTO 02003KT 9999 FEW160/// SCT180/// 01/M04 Q1015
 
LIPZ - Venezia/Tessera, Italy
Dati ricevuti: 22/01/2019 01:20
Sereno
Sereno
 Vento da N
Vento: N 13 km/h
Temperatura: 1°C
Temperatura del Vento: -3°C
P.to Rugiada: -4°C
Umidità: 70%
Barometro: 1015 hPa
Summary: Sereno
Visibility: greater than 10 km
2019/01/22 00:20 LIPZ 220020Z 36007KT CAVOK 01/M04 Q1015 NOSIG
LIQW - Sarzana/Luni, Italy
Dati ricevuti: 21/01/2019 15:55
Non Attivo
Parz. nuvoloso
Parz. nuvoloso
 Vento da NNO
Vento: NNO 11 km/h, Raffica: 33 km/h
Temperatura: 9°C
Temperatura del Vento: 7°C
P.to Rugiada: 0°C
Umidità: 54%
Barometro: 1013 hPa
Clouds: Parz. nuvoloso
Visibility: 10 km
Cloud details: Parz. nuvoloso 1219 m
2019/01/21 14:55 LIQW 211455Z 34006G18KT 300V030 9999 SCT040 09/M00 Q1013
 
LIVR - Rolle Pass, Italy
Dati ricevuti: 22/01/2019 00:55
Sereno
Sereno
 Vento da N
Vento: N 7 km/h
Temperatura: -8°C
Temperatura del Vento: -12°C
P.to Rugiada: -12°C
Umidità: 73%
Barometro: 1007 hPa
Summary: Sereno
Visibility: greater than 10 km
2019/01/21 23:55 LIVR 212355Z 35004KT CAVOK M08/M12 Q1007 RMK SKC MON LIB VIS MIN 9999
LIPK - Forli (civ/It-Af, Italy
Dati ricevuti: 21/01/2019 17:50
Non Attivo
Mist, Nuvoloso
Mist, Nuvoloso
 Vento da varies
Vento: varies 6 km/h
Temperatura: 4°C
P.to Rugiada: 0°C
Umidità: 75%
Barometro: 1015 hPa
Summary: Mist
Clouds: Molto nuvoloso
Visibility: 3 km
Cloud details: Parz. nuvoloso 305 m
Molto nuvoloso 610 m
2019/01/21 16:50 LIPK 211650Z VRB03KT 3000 BR SCT010 BKN020 04/00 Q1015
 
LIMV - Giovi Pass, Italy
Dati ricevuti: 21/01/2019 18:55
Non Attivo
Parz. nuvoloso
Parz. nuvoloso
 Vento da varies
Vento: varies 0 km/h
Temperatura: 1°C
P.to Rugiada: -3°C
Umidità: 75%
Barometro: 1013 hPa
Clouds: Parz. nuvoloso
Visibility: 8 km
Cloud details: Parz. nuvoloso 213 m
2019/01/21 17:55 LIMV 211755Z /////KT 8000 SCT007 01/M03 Q1013 RMK SCT MON N GEN INC S LIB ELEV SLW VAL FOSCHIA VIS MIN 6000N
LIPB - Bolzano(Civ/It-A, Italy
Dati ricevuti: 21/01/2019 22:50
Non Attivo
Sereno
Sereno
 Vento da calm
Vento: Calma
Temperatura: -5°C
P.to Rugiada: -8°C
Umidità: 80%
Barometro: 1016 hPa
Summary: Sereno
Visibility: greater than 10 km
2019/01/21 21:50 LIPB 212150Z 00000KT CAVOK M05/M08 Q1016
 
LIVD - Bolzano-Dobbiaco, Italy
Dati ricevuti: 21/01/2019 18:55
Non Attivo

 
2019/01/21 17:55 LIVD 211755Z ///04KT CAVOK M07/M10 Q1014 RMK SKC VIS MIN 9999
LIVE - Bolzano-Passo Resia, Italy
Dati ricevuti: 21/01/2019 23:55
Non Attivo
Sereno
Sereno
 Vento da N
Vento: N 7 km/h
Temperatura: -8°C
Temperatura del Vento: -12°C
P.to Rugiada: -12°C
Umidità: 73%
Barometro: 1010 hPa
Summary: Sereno
Visibility: greater than 10 km
2019/01/21 22:55 LIVE 212255Z 01004KT CAVOK M08/M12 Q1010 RMK SKC VIS MIN 9999
 
LIMH - Aosta-Pian Rosa (mtn T, Italy
Dati ricevuti: 21/01/2019 21:55
Non Attivo
Sereno
Sereno
 Vento da varies
Vento: varies 0 km/h
Temperatura: -17°C
P.to Rugiada: -21°C
Umidità: 71%
Barometro: 1003 hPa
Summary: Sereno
Visibility: greater than 10 km
2019/01/21 20:55 LIMH 212055Z /////KT CAVOK M17/M21 Q1003
LIMZ - Cuneo/Levaldigi, Italy
Dati ricevuti: 21/01/2019 20:50
Non Attivo
Sereno
Sereno
 Vento da SO
Vento: SO 9 km/h
Temperatura: -2°C
Temperatura del Vento: -6°C
P.to Rugiada: -4°C
Umidità: 86%
Barometro: 1015 hPa
Summary: Sereno
Visibility: greater than 10 km
2019/01/21 19:50 LIMZ 211950Z 23005KT CAVOK M02/M04 Q1015
 
LIMK - Torino-Bric Della Croce, Italy
Dati ricevuti: 21/01/2019 21:55
Non Attivo
Sereno
Sereno
 Vento da OSO
Vento: OSO 6 km/h
Temperatura: 1°C
P.to Rugiada: -8°C
Umidità: 51%
Barometro: 1013 hPa
Summary: Sereno
Visibility: greater than 10 km
2019/01/21 20:55 LIMK 212055Z 25003KT CAVOK 01/M08 Q1013
LIMN - Novara-Cameri (it-Afb), Italy
Dati ricevuti: 21/01/2019 18:55
Non Attivo
Mist, Parz. nuvoloso
Mist, Parz. nuvoloso
 Vento da varies
Vento: varies 2 km/h
Temperatura: 1°C
P.to Rugiada: -2°C
Umidità: 81%
Barometro: 1015 hPa
Summary: Mist
Clouds: Parz. nuvoloso
Visibility: 5 km
2019/01/21 17:55 LIMN 211755Z VRB01KT 5000 BR NSC 01/M02 Q1015 RMK SKC VIS MIN 5000 WHT
 
LIPA - Pordenone-Aviano (it/Us-Af, Italy
Dati ricevuti: 21/01/2019 21:55
Non Attivo
Sereno
Sereno
 Vento da NNE
Vento: NNE 6 km/h
Temperatura: 0°C
P.to Rugiada: -2°C
Umidità: 87%
Barometro: 1015 hPa
Summary: Sereno
Visibility: greater than 10 km
2019/01/21 20:55 LIPA 212055Z 03003KT CAVOK M00/M02 Q1015
LIPI - Udine-Rivolto (it-Afb), Italy
Dati ricevuti: 21/01/2019 17:55
Non Attivo
Few Clouds
Few Clouds
 Vento da varies
Vento: varies 0 km/h
Temperatura: 3°C
P.to Rugiada: -5°C
Umidità: 56%
Barometro: 1015 hPa
Clouds: Few Clouds
Visibility: 10 km
Cloud details: Few Clouds 1524 m
2019/01/21 16:55 LIPI 211655Z /////KT 9999 FEW050 03/M05 Q1015 RMK BKN BKN130 VIS MIN 9999 WIND THR06 07006KT WIND THR24 10008KT BLU
 
LIVO - Udine-Tarvisio, Italy
Dati ricevuti: 21/01/2019 18:55
Non Attivo
Molto nuvoloso
Molto nuvoloso
 Vento da E
Vento: E 4 km/h
Temperatura: -5°C
P.to Rugiada: -6°C
Umidità: 93%
Barometro: 1015 hPa
Clouds: Molto nuvoloso
Visibility: 10 km
Cloud details: Molto nuvoloso 457 m
2019/01/21 17:55 LIVO 211755Z 10002KT 9999 BKN015 M05/M06 Q1015 RMK BKN VIS MIN 9999
LIPQ - Trieste-Ronchi Dei Legionari, Italy
Dati ricevuti: 22/01/2019 01:20
Molto nuvoloso
Molto nuvoloso
 Vento da NNO
Vento: NNO 6 km/h
Temperatura: 1°C
P.to Rugiada: -5°C
Umidità: 65%
Barometro: 1014 hPa
Clouds: Molto nuvoloso
Visibility: 10 km
Cloud details: Molto nuvoloso 4267 m
2019/01/22 00:20 LIPQ 220020Z AUTO 33003KT 9999 BKN140/// 01/M05 Q1014
 
LIVT - Trieste, Italy
Dati ricevuti: 21/01/2019 18:55
Non Attivo
Few Clouds
Few Clouds
 Vento da NE
Vento: NE 33 km/h, Raffica: 65 km/h
Temperatura: 4°C
Temperatura del Vento: -2°C
P.to Rugiada: -3°C
Umidità: 61%
Barometro: 1015 hPa
Clouds: Few Clouds
Visibility: 10 km
Cloud details: Few Clouds 1372 m
2019/01/21 17:55 LIVT 211755Z 04018G35KT 9999 FEW045 04/M03 Q1015 RMK BKN BKN090 QUK / QUL / VIS MAR 20 KM VIS MIN 9999
LIRQ - Firenze/Peretola, Italy
Dati ricevuti: 22/01/2019 01:20
Molto nuvoloso
Molto nuvoloso
 Vento da varies
Vento: varies 11 km/h
Temperatura: 6°C
Temperatura del Vento: 4°C
P.to Rugiada: -1°C
Umidità: 61%
Barometro: 1011 hPa
Clouds: Molto nuvoloso
Visibility: 10 km
Cloud details: Molto nuvoloso 1219 m
2019/01/22 00:20 LIRQ 220020Z VRB06KT 9999 BKN040 06/M01 Q1011
 
LIPK - Forli (civ/It-Af, Italy
Dati ricevuti: 21/01/2019 17:50
Non Attivo
Mist, Nuvoloso
Mist, Nuvoloso
 Vento da varies
Vento: varies 6 km/h
Temperatura: 4°C
P.to Rugiada: 0°C
Umidità: 75%
Barometro: 1015 hPa
Summary: Mist
Clouds: Molto nuvoloso
Visibility: 3 km
Cloud details: Parz. nuvoloso 305 m
Molto nuvoloso 610 m
2019/01/21 16:50 LIPK 211650Z VRB03KT 3000 BR SCT010 BKN020 04/00 Q1015
LIRS - Grosseto (it-Afb, Italy
Dati ricevuti: 22/01/2019 00:55
Pioggia, Parz. nuvoloso
Pioggia, Parz. nuvoloso
 Vento da N
Vento: N 15 km/h
Temperatura: 4°C
Temperatura del Vento: 1°C
P.to Rugiada: 2°C
Umidità: 87%
Barometro: 1011 hPa
Summary: Pioggia
Clouds: Parz. nuvoloso
Visibility: 6 km
Cloud details: Few Clouds 457 m
Parz. nuvoloso 610 m
2019/01/21 23:55 LIRS 212355Z 36008KT 6000 RA FEW015 SCT020 04/02 Q1011
 
LIRP - Pisa (civ/It-Afb, Italy
Dati ricevuti: 22/01/2019 01:15
Molto nuvoloso
Molto nuvoloso
 Vento da SE
Vento: SE 11 km/h
Temperatura: 7°C
Temperatura del Vento: 5°C
P.to Rugiada: 1°C
Umidità: 66%
Barometro: 1012 hPa
Clouds: Molto nuvoloso
Visibility: 10 km
Cloud details: Parz. nuvoloso 1219 m
Molto nuvoloso 1829 m
2019/01/22 00:15 LIRP 220015Z 13006KT 9999 SCT040 BKN060 07/01 Q1012 NOSIG
LIVF - Frontone, Italy
Dati ricevuti: 22/01/2019 00:55
Light snow, Nebbia
Light snow, Nebbia
 Vento da O
Vento: O 9 km/h
Temperatura: 1°C
Temperatura del Vento: -2°C
P.to Rugiada: 0°C
Umidità: 93%
Barometro: 1011 hPa
Summary: Light snow, Nebbia
Visibility: 0 km
2019/01/21 23:55 LIVF 212355Z 26005KT 0100 -SN FG VV/// 01/M00 Q1011 RMK MON INVIS VAL INVIS VIS MIN 0100
 
LIPC - Cervia (it-Afb), Italy
Dati ricevuti: 22/01/2019 00:55
Mist, Nuvoloso
Mist, Nuvoloso
 Vento da ONO
Vento: ONO 17 km/h
Temperatura: 4°C
Temperatura del Vento: 0°C
P.to Rugiada: 2°C
Umidità: 87%
Barometro: 1014 hPa
Summary: Mist
Clouds: Molto nuvoloso
Visibility: 5 km
Cloud details: Parz. nuvoloso 762 m
Molto nuvoloso 1219 m
2019/01/21 23:55 LIPC 212355Z 29009KT 5000 BR SCT025 BKN040 04/02 Q1014
LIPR - Rimini (civ/It-A, Italy
Dati ricevuti: 22/01/2019 01:20
Pioviggine, Mist, Coperto
Pioviggine, Mist, Coperto
 Vento da O
Vento: O 19 km/h
Temperatura: 3°C
Temperatura del Vento: -2°C
P.to Rugiada: 1°C
Umidità: 87%
Barometro: 1013 hPa
Summary: Pioviggine, Mist
Clouds: Coperto
Visibility: 4 km
Cloud details: Coperto 610 m
2019/01/22 00:20 LIPR 220020Z AUTO 26010KT 3800 -RA BR OVC020/// 03/01 Q1013
 
LIRX - Monte Calamita, Italy
Dati ricevuti: 21/01/2019 19:55
Non Attivo
Pioviggine, Mist, Coperto
Pioviggine, Mist, Coperto
 Vento da NE
Vento: NE 24 km/h
Temperatura: 4°C
Temperatura del Vento: -1°C
P.to Rugiada: 3°C
Umidità: 93%
Barometro: 1008 hPa
Summary: Pioviggine, Mist
Clouds: Coperto
Visibility: 3 km
Cloud details: Coperto 122 m
2019/01/21 18:55 LIRX 211855Z 05013KT 3000 -RA BR OVC004 04/03 Q1008 RMK OVC VIS MIN 3000 VIS MAR 3 KM
LIVM - Punta Marina/Rav, Italy
Dati ricevuti: 21/01/2019 18:55
Non Attivo
Molto nuvoloso
Molto nuvoloso
 Vento da ONO
Vento: ONO 9 km/h
Temperatura: 5°C
Temperatura del Vento: 3°C
P.to Rugiada: 1°C
Umidità: 76%
Barometro: 1015 hPa
Clouds: Molto nuvoloso
Visibility: 10 km
Cloud details: Molto nuvoloso 1219 m
2019/01/21 17:55 LIVM 211755Z 29005KT 9999 BKN040 05/01 Q1015 RMK OVC SCT070 QUK / QUL / VIS MAR 10 KM VIS MIN 9999